createdAt,value
2019-04-21T00:02:32.405Z,65.30
2019-04-21T00:05:24.982Z,64.78
2019-04-21T00:08:01.226Z,64.83
2019-04-21T00:10:36.424Z,65.00
2019-04-21T00:13:00.395Z,65.68
2019-04-21T00:15:28.944Z,66.28
2019-04-21T00:18:00.680Z,66.32
2019-04-21T00:20:39.245Z,66.40
2019-04-21T00:23:22.618Z,66.69
2019-04-21T00:25:52.618Z,66.12
2019-04-21T00:28:35.892Z,65.92
2019-04-21T00:31:04.337Z,66.07
2019-04-21T00:33:28.187Z,66.09
2019-04-21T00:36:06.866Z,66.39
2019-04-21T00:39:02.117Z,65.76
2019-04-21T00:41:24.973Z,65.99
2019-04-21T00:43:55.719Z,66.95
2019-04-21T00:46:32.338Z,67.09
2019-04-21T00:49:09.519Z,67.12
2019-04-21T00:51:54.189Z,66.78
2019-04-21T00:54:37.718Z,66.56
2019-04-21T00:57:08.938Z,66.93
2019-04-21T00:59:34.976Z,67.25
2019-04-21T01:02:06.442Z,66.88
2019-04-21T01:04:44.731Z,67.05
2019-04-21T01:07:12.427Z,67.12
2019-04-21T01:09:45.325Z,68.87
2019-04-21T01:12:28.199Z,69.75
2019-04-21T01:15:04.834Z,69.50
2019-04-21T01:17:38.908Z,70.11
2019-04-21T01:20:01.693Z,70.09
2019-04-21T01:22:20.846Z,69.95
2019-04-21T01:25:04.362Z,69.87
2019-04-21T01:27:52.243Z,69.83
2019-04-21T01:30:22.281Z,70.17
2019-04-21T01:33:06.299Z,70.65
2019-04-21T01:35:36.685Z,70.82
2019-04-21T01:38:08.156Z,71.43
2019-04-21T01:40:59.128Z,71.72
2019-04-21T01:43:15.121Z,71.70
2019-04-21T01:45:48.773Z,71.98
2019-04-21T01:48:19.548Z,72.08
2019-04-21T01:50:56.758Z,72.27
2019-04-21T01:53:45.273Z,72.10
2019-04-21T01:56:35.756Z,70.98
2019-04-21T01:58:57.340Z,69.85
2019-04-21T02:01:39.082Z,70.28
2019-04-21T02:04:24.439Z,70.64
2019-04-21T02:06:54.924Z,71.00
2019-04-21T02:09:27.406Z,70.65
2019-04-21T02:12:09.765Z,70.64
2019-04-21T02:14:46.359Z,71.21
2019-04-21T02:17:13.246Z,71.32
2019-04-21T02:19:45.124Z,71.57
2019-04-21T02:22:33.900Z,72.04
2019-04-21T02:25:02.920Z,72.52
2019-04-21T02:27:31.943Z,72.70
2019-04-21T02:30:14.222Z,72.23
2019-04-21T02:33:05.903Z,71.90
2019-04-21T02:35:36.400Z,72.11
2019-04-21T02:38:01.205Z,72.21
2019-04-21T02:40:40.462Z,72.83
2019-04-21T02:43:13.273Z,73.12
2019-04-21T02:45:52.879Z,73.88
2019-04-21T02:48:19.216Z,73.15
2019-04-21T02:53:30.412Z,72.87
2019-04-21T02:56:00.527Z,73.48
2019-04-21T02:58:57.013Z,73.97
2019-04-21T03:01:38.235Z,74.75
2019-04-21T03:04:02.252Z,74.16
2019-04-21T03:07:07.222Z,74.33
2019-04-21T03:09:32.222Z,74.22
2019-04-21T03:14:46.161Z,75.01
2019-04-21T03:17:15.402Z,74.94
2019-04-21T03:19:50.026Z,74.63
2019-04-21T03:22:32.293Z,74.52
2019-04-21T03:25:23.508Z,74.19
2019-04-21T03:35:43.795Z,74.04
2019-04-21T03:38:03.904Z,74.07
2019-04-21T03:40:18.605Z,74.09
2019-04-21T03:42:57.728Z,74.02
2019-04-21T03:45:46.322Z,73.98
2019-04-21T03:48:07.730Z,73.92
2019-04-21T03:50:42.801Z,73.10
2019-04-21T03:53:22.636Z,73.16
2019-04-21T03:55:53.069Z,73.03
2019-04-21T04:01:16.531Z,73.53
2019-04-21T04:04:05.785Z,73.11
2019-04-21T04:06:28.022Z,72.71
2019-04-21T04:09:09.657Z,72.20
2019-04-21T04:22:04.223Z,62.37
2019-04-21T04:24:34.260Z,62.15
2019-04-21T04:27:07.939Z,61.61
2019-04-21T04:29:33.602Z,60.32
2019-04-21T04:32:16.524Z,60.16
2019-04-21T04:34:49.924Z,59.26
2019-04-21T04:37:40.615Z,58.14
2019-04-21T04:40:00.566Z,57.28
2019-04-21T04:42:41.623Z,56.65
2019-04-21T04:47:46.619Z,55.45
2019-04-21T04:52:49.030Z,56.78
2019-04-21T04:55:31.976Z,57.19
2019-04-21T05:00:58.146Z,58.41
2019-04-21T05:03:13.548Z,59.22
2019-04-21T05:14:07.574Z,55.02
2019-04-21T05:16:46.783Z,53.37
2019-04-21T05:19:16.676Z,52.56
2019-04-21T05:21:50.513Z,51.20
2019-04-21T05:24:13.694Z,52.00
2019-04-21T05:26:44.792Z,46.00
2019-04-21T05:29:18.478Z,39.05
2019-04-21T05:32:02.201Z,34.56
2019-04-21T05:34:38.707Z,32.92
2019-04-21T05:37:20.326Z,31.35
2019-04-21T05:39:48.013Z,31.01
2019-04-21T05:42:25.264Z,32.01
2019-04-21T05:45:12.705Z,32.01
2019-04-21T05:47:39.856Z,34.65
2019-04-21T05:50:15.028Z,35.48
2019-04-21T05:52:44.935Z,36.34
2019-04-21T05:58:02.491Z,36.86
2019-04-21T06:00:59.420Z,37.28
2019-04-21T06:03:17.635Z,37.58
2019-04-21T06:06:00.776Z,37.64
2019-04-21T06:08:25.538Z,37.11
2019-04-21T06:11:02.274Z,37.07
2019-04-21T06:16:07.512Z,37.03
2019-04-21T06:18:48.516Z,37.59
2019-04-21T06:21:20.464Z,36.89
2019-04-21T06:23:45.554Z,36.68
2019-04-21T06:28:59.938Z,36.24
2019-04-21T06:34:09.656Z,35.41
2019-04-21T06:36:50.587Z,35.39
2019-04-21T06:39:24.209Z,35.34
2019-04-21T06:41:58.623Z,35.05
2019-04-21T06:44:31.996Z,34.21
2019-04-21T06:47:06.013Z,33.69
2019-04-21T06:49:41.212Z,33.23
2019-04-21T06:52:29.850Z,33.94
2019-04-21T06:57:29.171Z,33.42
2019-04-21T06:59:55.701Z,33.28
2019-04-21T07:02:43.757Z,32.44
2019-04-21T07:05:07.578Z,32.21
2019-04-21T07:07:43.392Z,32.35
2019-04-21T07:10:16.682Z,31.35
2019-04-21T07:12:49.728Z,31.99
2019-04-21T07:15:27.927Z,31.95
2019-04-21T07:18:00.143Z,32.93
2019-04-21T07:20:32.370Z,32.03
2019-04-21T07:23:09.392Z,31.57
2019-04-21T07:25:48.946Z,32.33
2019-04-21T07:28:19.044Z,33.26
2019-04-21T07:30:52.708Z,32.37
2019-04-21T07:36:07.949Z,32.43
2019-04-21T07:38:33.239Z,32.51
2019-04-21T07:40:59.603Z,31.59
2019-04-21T07:43:33.965Z,31.45
2019-04-21T07:46:12.934Z,30.67
2019-04-21T07:48:57.935Z,31.20
2019-04-21T07:51:52.151Z,30.79
2019-04-21T07:54:26.860Z,30.15
2019-04-21T07:56:40.424Z,29.75
2019-04-21T07:59:39.637Z,30.17
2019-04-21T08:02:01.941Z,29.37
2019-04-21T08:04:52.710Z,29.29
2019-04-21T08:07:12.903Z,30.37
2019-04-21T08:09:46.747Z,30.25
2019-04-21T08:12:16.234Z,29.67
2019-04-21T08:14:59.964Z,30.02
2019-04-21T08:17:30.777Z,29.15
2019-04-21T08:20:00.339Z,29.71
2019-04-21T08:22:44.830Z,30.74
2019-04-21T08:25:16.595Z,29.97
2019-04-21T08:27:59.823Z,29.62
2019-04-21T08:30:29.179Z,29.21
2019-04-21T08:33:09.319Z,28.53
2019-04-21T08:35:59.479Z,28.66
2019-04-21T08:38:08.840Z,28.93
2019-04-21T08:40:57.536Z,28.81
2019-04-21T08:43:21.801Z,28.04
2019-04-21T08:48:23.494Z,27.48
2019-04-21T08:51:05.649Z,28.33
2019-04-21T08:53:35.796Z,27.09
2019-04-21T08:56:41.392Z,27.02
2019-04-21T08:59:18.954Z,28.10
2019-04-21T09:02:18.139Z,28.02
2019-04-21T09:04:30.603Z,28.39
2019-04-21T09:09:57.846Z,27.27
2019-04-21T09:12:16.098Z,26.12
2019-04-21T09:15:05.758Z,26.83
2019-04-21T09:17:22.143Z,25.84
2019-04-21T09:20:13.816Z,26.64
2019-04-21T09:22:37.728Z,27.01
2019-04-21T09:25:14.574Z,24.76
2019-04-21T09:27:42.065Z,24.01
2019-04-21T09:30:02.685Z,23.58
2019-04-21T09:32:34.851Z,24.34
2019-04-21T09:35:11.179Z,25.55
2019-04-21T09:37:51.658Z,25.37
2019-04-21T09:40:24.715Z,24.63
2019-04-21T09:42:58.694Z,24.73
2019-04-21T09:45:26.416Z,24.60
2019-04-21T09:48:06.395Z,25.19
2019-04-21T09:50:35.052Z,24.17
2019-04-21T09:53:16.785Z,26.08
2019-04-21T09:55:50.153Z,25.09
2019-04-21T09:58:24.310Z,24.65
2019-04-21T10:01:03.734Z,25.22
2019-04-21T10:03:26.441Z,25.02
2019-04-21T10:05:59.045Z,25.49
2019-04-21T10:08:31.903Z,24.68
2019-04-21T10:11:05.377Z,25.37
2019-04-21T10:13:38.288Z,25.22
2019-04-21T10:16:17.463Z,23.96
2019-04-21T10:18:50.479Z,23.73
2019-04-21T10:21:24.861Z,24.10
2019-04-21T10:23:57.795Z,23.11
2019-04-21T10:26:30.601Z,23.33
2019-04-21T10:29:12.821Z,24.40
2019-04-21T10:31:38.729Z,22.35
2019-04-21T10:34:11.577Z,23.26
2019-04-21T10:36:44.893Z,24.34
2019-04-21T10:39:17.873Z,23.49
2019-04-21T10:41:51.170Z,23.31
2019-04-21T10:44:25.214Z,23.32
2019-04-21T10:46:58.481Z,23.95
2019-04-21T10:49:31.170Z,22.80
2019-04-21T10:52:05.200Z,21.67
2019-04-21T10:55:01.771Z,22.43
2019-04-21T10:57:14.522Z,22.95
2019-04-21T10:59:50.559Z,22.52
2019-04-21T11:02:32.955Z,22.58
2019-04-21T11:05:08.972Z,22.08
2019-04-21T11:08:06.799Z,21.90
2019-04-21T11:10:27.704Z,22.33
2019-04-21T11:13:00.786Z,22.72
2019-04-21T11:15:34.997Z,22.02
2019-04-21T11:18:08.087Z,22.88
2019-04-21T11:20:40.637Z,21.90
2019-04-21T11:23:14.242Z,20.80
2019-04-21T11:25:48.178Z,22.34
2019-04-21T11:28:22.942Z,22.57
2019-04-21T11:30:57.183Z,23.00
2019-04-21T11:33:31.198Z,22.28
2019-04-21T11:36:04.040Z,22.36
2019-04-21T11:38:55.640Z,21.77
2019-04-21T11:41:11.943Z,22.30
2019-04-21T11:43:45.644Z,22.51
2019-04-21T11:46:18.358Z,22.67
2019-04-21T11:48:52.559Z,21.80
2019-04-21T11:51:25.401Z,22.33
2019-04-21T11:53:59.182Z,21.84
2019-04-21T11:56:32.720Z,22.62
2019-04-21T11:59:05.962Z,22.92
2019-04-21T12:01:39.414Z,24.09
2019-04-21T12:04:13.747Z,23.88
2019-04-21T12:06:47.709Z,23.28
2019-04-21T12:09:21.067Z,22.43
2019-04-21T12:11:54.015Z,22.54
2019-04-21T12:14:28.006Z,23.40
2019-04-21T12:17:01.095Z,23.75
2019-04-21T12:19:36.719Z,23.32
2019-04-21T12:22:19.367Z,22.91
2019-04-21T12:24:45.007Z,22.12
2019-04-21T12:27:20.332Z,21.52
2019-04-21T12:29:53.549Z,22.63
2019-04-21T12:32:44.336Z,22.55
2019-04-21T12:35:17.816Z,23.10
2019-04-21T12:37:51.047Z,23.24
2019-04-21T12:40:24.303Z,22.54
2019-04-21T12:42:58.525Z,23.20
2019-04-21T12:45:31.757Z,22.87
2019-04-21T12:48:06.057Z,23.09
2019-04-21T12:50:39.580Z,23.11
2019-04-21T12:53:15.256Z,23.11
2019-04-21T12:55:48.074Z,22.17
2019-04-21T12:58:21.542Z,21.74
2019-04-21T13:00:54.768Z,23.39
2019-04-21T13:03:28.679Z,22.10
2019-04-21T13:06:03.197Z,22.72
2019-04-21T13:08:49.075Z,22.15
2019-04-21T13:11:13.048Z,22.40
2019-04-21T13:13:46.140Z,22.12
2019-04-21T13:16:19.238Z,22.60
2019-04-21T13:18:53.341Z,22.62
2019-04-21T13:21:27.775Z,23.70
2019-04-21T13:24:00.983Z,22.58
2019-04-21T13:26:43.159Z,22.29
2019-04-21T13:29:08.089Z,23.64
2019-04-21T13:31:40.786Z,22.75
2019-04-21T13:34:13.996Z,22.10
2019-04-21T13:36:47.676Z,21.74
2019-04-21T13:40:03.383Z,22.01
2019-04-21T13:42:14.507Z,21.53
2019-04-21T13:44:41.206Z,21.92
2019-04-21T13:47:14.548Z,22.35
2019-04-21T13:49:47.687Z,23.32
2019-04-21T13:52:20.601Z,23.02
2019-04-21T13:54:53.792Z,22.03
2019-04-21T13:57:26.609Z,22.45
2019-04-21T13:59:59.349Z,21.87
2019-04-21T14:02:34.515Z,22.11
2019-04-21T14:05:13.701Z,21.53
2019-04-21T14:07:46.166Z,22.55
2019-04-21T14:10:21.729Z,22.77
2019-04-21T14:12:54.561Z,22.34
2019-04-21T14:15:28.435Z,21.37
2019-04-21T14:18:02.679Z,21.92
2019-04-21T14:20:35.580Z,21.93
2019-04-21T14:23:18.793Z,22.12
2019-04-21T14:25:44.206Z,22.28
2019-04-21T14:28:18.045Z,23.09
2019-04-21T14:30:52.571Z,22.49
2019-04-21T14:33:25.706Z,23.18
2019-04-21T14:35:58.960Z,23.01
2019-04-21T14:38:32.383Z,23.17
2019-04-21T14:41:06.161Z,22.83
2019-04-21T14:43:39.000Z,23.43
2019-04-21T14:46:19.650Z,22.47
2019-04-21T14:48:57.230Z,23.37
2019-04-21T14:51:50.415Z,22.67
2019-04-21T14:54:28.814Z,22.93
2019-04-21T14:57:03.118Z,22.70
2019-04-21T14:59:37.213Z,23.84
2019-04-21T15:02:09.989Z,23.31
2019-04-21T15:04:43.910Z,22.94
2019-04-21T15:07:17.106Z,22.43
2019-04-21T15:10:01.463Z,23.09
2019-04-21T15:12:25.688Z,22.57
2019-04-21T15:14:58.340Z,23.31
2019-04-21T15:17:31.690Z,22.66
2019-04-21T15:20:10.332Z,22.89
2019-04-21T15:22:39.410Z,23.43
2019-04-21T15:25:12.098Z,22.24
2019-04-21T15:27:46.501Z,22.67
2019-04-21T15:30:20.737Z,23.13
2019-04-21T15:32:54.745Z,23.63
2019-04-21T15:35:29.005Z,23.52
2019-04-21T15:38:02.064Z,23.40
2019-04-21T15:40:41.867Z,23.30
2019-04-21T15:43:10.589Z,23.50
2019-04-21T15:45:44.537Z,24.01
2019-04-21T15:48:18.224Z,23.91
2019-04-21T15:50:51.821Z,24.54
2019-04-21T15:53:27.623Z,23.81
2019-04-21T15:56:11.133Z,23.75
2019-04-21T15:58:50.574Z,23.18
2019-04-21T16:01:22.905Z,24.58
2019-04-21T16:03:58.502Z,23.70
2019-04-21T16:06:30.177Z,23.93
2019-04-21T16:09:04.822Z,24.03
2019-04-21T16:11:37.916Z,23.90
2019-04-21T16:14:10.580Z,24.50
2019-04-21T16:16:43.348Z,24.10
2019-04-21T16:19:16.571Z,24.15
2019-04-21T16:21:50.545Z,24.13
2019-04-21T16:24:23.455Z,24.78
2019-04-21T16:26:56.482Z,24.39
2019-04-21T16:29:29.370Z,24.48
2019-04-21T16:32:02.007Z,24.43
2019-04-21T16:34:43.560Z,24.71
2019-04-21T16:37:09.799Z,25.18
2019-04-21T16:39:43.320Z,25.22
2019-04-21T16:42:16.263Z,25.66
2019-04-21T16:44:49.177Z,25.98
2019-04-21T16:47:24.070Z,25.72
2019-04-21T16:49:57.976Z,25.89
2019-04-21T16:52:32.335Z,26.20
2019-04-21T16:55:16.899Z,26.34
2019-04-21T16:58:00.697Z,26.94
2019-04-21T17:00:36.412Z,26.10
2019-04-21T17:03:02.297Z,26.79
2019-04-21T17:05:36.190Z,26.78
2019-04-21T17:08:11.101Z,27.00
2019-04-21T17:10:56.953Z,27.59
2019-04-21T17:13:18.285Z,27.73
2019-04-21T17:16:10.408Z,27.45
2019-04-21T17:18:43.474Z,27.89
2019-04-21T17:21:02.665Z,28.05
2019-04-21T17:23:35.533Z,28.42
2019-04-21T17:26:08.965Z,28.85
2019-04-21T17:28:42.643Z,28.76
2019-04-21T17:31:16.252Z,28.91
2019-04-21T17:33:57.868Z,29.44
2019-04-21T17:36:23.460Z,29.51
2019-04-21T17:38:57.530Z,29.90
2019-04-21T17:41:41.232Z,30.18
2019-04-21T17:44:06.708Z,30.26
2019-04-21T17:46:47.821Z,30.81
2019-04-21T17:49:14.979Z,30.86
2019-04-21T17:52:02.476Z,31.41
2019-04-21T17:54:41.844Z,31.83
2019-04-21T17:57:32.287Z,32.69
2019-04-21T18:00:04.359Z,32.31
2019-04-21T18:02:43.188Z,32.68
2019-04-21T18:05:15.278Z,32.99
2019-04-21T18:07:41.846Z,33.98
2019-04-21T18:10:19.213Z,34.41
2019-04-21T18:12:47.855Z,34.39
2019-04-21T18:15:29.044Z,35.56
2019-04-21T18:17:46.770Z,34.62
2019-04-21T18:20:21.909Z,34.43
2019-04-21T18:23:09.627Z,35.27
2019-04-21T18:25:47.401Z,35.86
2019-04-21T18:28:14.493Z,35.64
2019-04-21T18:30:58.435Z,36.72
2019-04-21T18:33:35.535Z,35.90
2019-04-21T18:36:15.804Z,38.14
2019-04-21T18:39:23.412Z,37.68
2019-04-21T18:42:02.480Z,36.27
2019-04-21T18:44:53.838Z,35.88
2019-04-21T18:47:19.561Z,34.55
2019-04-21T18:49:42.727Z,35.54
2019-04-21T18:52:45.558Z,35.04
2019-04-21T18:55:16.652Z,35.08
2019-04-21T18:57:42.351Z,34.97
2019-04-21T19:00:17.850Z,35.13
2019-04-21T19:02:49.232Z,35.16
2019-04-21T19:05:24.192Z,35.03
2019-04-21T19:08:11.865Z,35.62
2019-04-21T19:10:52.178Z,35.85
2019-04-21T19:13:46.072Z,36.74
2019-04-21T19:16:17.039Z,37.44
2019-04-21T19:18:47.060Z,37.34
2019-04-21T19:21:04.091Z,37.10
2019-04-21T19:28:52.652Z,37.25
2019-04-21T19:31:24.796Z,39.07
2019-04-21T19:33:48.071Z,37.96
2019-04-21T19:36:15.125Z,37.56
2019-04-21T19:38:58.376Z,37.33
2019-04-21T19:41:38.867Z,37.46
2019-04-21T19:44:16.008Z,36.83
2019-04-21T19:46:42.433Z,36.70
2019-04-21T19:49:27.796Z,36.95
2019-04-21T19:51:52.270Z,37.53
2019-04-21T19:54:23.034Z,37.86
2019-04-21T19:56:49.396Z,37.50
2019-04-21T19:59:30.636Z,38.35
2019-04-21T20:01:56.556Z,37.66
2019-04-21T20:04:36.880Z,37.94
2019-04-21T20:07:22.060Z,38.53
2019-04-21T20:09:55.792Z,37.71
2019-04-21T20:12:35.575Z,37.38
2019-04-21T20:15:10.818Z,37.14
2019-04-21T20:17:37.706Z,35.86
2019-04-21T20:19:56.405Z,35.21
2019-04-21T20:22:35.469Z,35.03
2019-04-21T20:25:09.902Z,35.06
2019-04-21T20:27:49.403Z,34.24
2019-04-21T20:30:36.634Z,34.21
2019-04-21T20:33:31.853Z,34.05
2019-04-21T20:35:52.078Z,33.52
2019-04-21T20:38:12.672Z,33.68
2019-04-21T20:40:41.305Z,33.88
2019-04-21T20:43:25.178Z,33.89
2019-04-21T20:48:29.917Z,33.18
2019-04-21T20:51:09.235Z,33.15
2019-04-21T20:53:41.027Z,33.30
2019-04-21T20:56:11.108Z,32.90
2019-04-21T20:58:53.877Z,33.15
2019-04-21T21:01:41.334Z,32.72
2019-04-21T21:03:57.934Z,33.10
2019-04-21T21:06:35.249Z,33.17
2019-04-21T21:09:07.347Z,33.18
2019-04-21T21:11:45.201Z,33.47
2019-04-21T21:14:15.995Z,33.17
2019-04-21T21:16:58.241Z,33.26
2019-04-21T21:19:28.885Z,33.28
2019-04-21T21:21:56.432Z,33.30
2019-04-21T21:24:41.974Z,33.35
2019-04-21T21:27:05.500Z,33.44
2019-04-21T21:29:47.535Z,34.07
2019-04-21T21:32:25.913Z,34.14
2019-04-21T21:34:53.600Z,33.99
2019-04-21T21:37:32.230Z,34.20
2019-04-21T21:40:08.234Z,34.44
2019-04-21T21:42:26.061Z,34.81
2019-04-21T21:44:58.538Z,35.15
2019-04-21T21:47:46.124Z,35.19
2019-04-21T21:50:11.632Z,35.34
2019-04-21T21:52:47.797Z,35.48
2019-04-21T21:55:11.937Z,35.79
2019-04-21T21:57:50.356Z,36.24
2019-04-21T22:00:23.983Z,36.38
2019-04-21T22:03:03.525Z,36.66
2019-04-21T22:05:42.811Z,36.97
2019-04-21T22:08:06.970Z,37.14
2019-04-21T22:10:39.520Z,37.22
2019-04-21T22:13:16.529Z,37.56
2019-04-21T22:15:48.257Z,37.96
2019-04-21T22:18:42.099Z,38.23
2019-04-21T22:21:09.143Z,38.63
2019-04-21T22:23:42.592Z,38.88
2019-04-21T22:26:05.366Z,39.21
2019-04-21T22:28:38.110Z,39.62
2019-04-21T22:31:16.380Z,40.07
2019-04-21T22:33:48.413Z,40.52
2019-04-21T22:36:33.065Z,40.85
2019-04-21T22:39:13.062Z,40.99
2019-04-21T22:41:34.604Z,41.33
2019-04-21T22:44:02.789Z,41.73
2019-04-21T22:46:36.131Z,42.10
2019-04-21T22:49:10.804Z,42.48
2019-04-21T22:51:48.245Z,42.80
2019-04-21T22:54:24.488Z,43.20
2019-04-21T22:56:59.297Z,43.73
2019-04-21T22:59:28.585Z,43.94
2019-04-21T23:02:06.348Z,44.38
2019-04-21T23:04:43.864Z,44.86
2019-04-21T23:07:15.442Z,45.23
2019-04-21T23:09:45.481Z,45.78
2019-04-21T23:12:20.442Z,46.18
2019-04-21T23:15:01.822Z,46.54
2019-04-21T23:17:45.773Z,46.71
2019-04-21T23:20:22.706Z,47.08
2019-04-21T23:23:00.755Z,47.37
2019-04-21T23:25:26.648Z,47.72
2019-04-21T23:28:00.079Z,47.99
2019-04-21T23:30:45.127Z,48.21
2019-04-21T23:33:03.853Z,48.61
2019-04-21T23:35:35.210Z,48.96
2019-04-21T23:38:06.764Z,49.35
2019-04-21T23:40:40.675Z,49.88
2019-04-21T23:43:18.851Z,50.17
2019-04-21T23:45:48.170Z,50.64
2019-04-21T23:48:32.451Z,50.87
2019-04-21T23:51:10.002Z,51.25
2019-04-21T23:53:29.297Z,51.77
2019-04-21T23:56:03.324Z,52.08
2019-04-21T23:58:38.158Z,52.51
